Time;durP1;ratioP1;P1;durP2;ratioP2;P2;SDS_P1;SDS_P2;PMS_P1;PMS_P2;Temp;Humidity;BMP_temperature;BMP_pressure;BME280_temperature;BME280_humidity;BME280_pressure;Samples;Min_cycle;Max_cycle;Signal;HPM_P1;HPM_P2
2023/09/06 00:00:34;;;;;;;3.55;3.25;;;18.20;99.90;;;;;;5072670;28;20059;-81
2023/09/06 00:03:00;;;;;;;5.38;4.03;;;18.00;99.90;;;;;;5083091;28;20110;-80
2023/09/06 00:05:26;;;;;;;3.95;3.55;;;18.10;99.90;;;;;;5063697;28;20051;-80
2023/09/06 00:07:52;;;;;;;3.95;3.53;;;18.10;99.90;;;;;;5074616;28;20082;-81
2023/09/06 00:10:18;;;;;;;4.70;3.53;;;18.10;99.90;;;;;;5087053;28;20040;-81
2023/09/06 00:12:46;;;;;;;4.70;3.42;;;18.10;99.90;;;;;;5084409;28;20047;-81
2023/09/06 00:15:12;;;;;;;4.05;3.75;;;18.10;99.90;;;;;;5074864;28;20143;-80
2023/09/06 00:17:41;;;;;;;3.95;3.35;;;18.00;99.90;;;;;;5069841;28;20502;-81
2023/09/06 00:20:24;;;;;;;3.70;3.40;;;17.90;99.90;;;;;;5073790;28;20105;-81
2023/09/06 00:23:01;;;;;;;3.90;3.50;;;18.00;99.90;;;;;;5085756;28;20051;-81
2023/09/06 00:25:31;;;;;;;4.38;3.17;;;18.00;99.90;;;;;;5067531;28;20041;-81
2023/09/06 00:27:58;;;;;;;4.03;3.63;;;17.90;99.90;;;;;;5068656;28;20089;-80
2023/09/06 00:30:24;;;;;;;3.78;3.47;;;17.90;99.90;;;;;;5081610;28;20036;-81
2023/09/06 00:32:52;;;;;;;3.30;3.10;;;17.80;99.90;;;;;;5087989;28;20581;-81
2023/09/06 00:35:19;;;;;;;3.97;3.67;;;17.80;99.90;;;;;;5070239;28;20051;-81
2023/09/06 00:37:45;;;;;;;3.58;3.28;;;17.80;99.90;;;;;;5072086;28;20131;-81
2023/09/06 00:40:18;;;;;;;4.75;3.78;;;17.70;99.90;;;;;;5076539;28;20451;-81
2023/09/06 00:42:49;;;;;;;4.15;3.75;;;17.70;99.90;;;;;;5071887;28;20044;-81
2023/09/06 00:45:17;;;;;;;3.58;3.28;;;17.70;99.90;;;;;;5073849;28;20040;-81
2023/09/06 00:47:43;;;;;;;5.20;4.03;;;17.60;99.90;;;;;;5083067;28;20506;-81
2023/09/06 00:50:11;;;;;;;5.47;3.60;;;17.60;99.90;;;;;;5086984;28;20055;-81
2023/09/06 00:52:37;;;;;;;4.28;3.63;;;17.60;99.90;;;;;;5086546;28;20056;-81
2023/09/06 00:55:03;;;;;;;4.88;3.38;;;17.60;99.90;;;;;;5068888;28;20055;-81
2023/09/06 00:57:29;;;;;;;3.90;3.50;;;17.60;99.90;;;;;;5068860;28;20044;-80
2023/09/06 00:59:58;;;;;;;4.72;3.30;;;17.50;99.90;;;;;;5072426;28;20779;-81
2023/09/06 01:02:24;;;;;;;3.58;3.28;;;17.50;99.90;;;;;;5068192;28;20106;-81
2023/09/06 01:04:50;;;;;;;4.55;3.45;;;17.50;99.90;;;;;;5068113;28;20410;-81
2023/09/06 01:07:17;;;;;;;4.88;3.97;;;17.40;99.90;;;;;;5073063;28;20048;-81
2023/09/06 01:09:43;;;;;;;4.35;3.88;;;17.40;99.90;;;;;;5075227;28;20134;-81
2023/09/06 01:12:12;;;;;;;5.75;3.97;;;17.40;99.90;;;;;;5070949;28;20097;-81
2023/09/06 01:14:40;;;;;;;3.80;3.38;;;17.40;99.90;;;;;;5076640;28;20045;-80
2023/09/06 01:17:09;;;;;;;6.22;3.90;;;17.50;99.90;;;;;;5066692;28;20045;-80
2023/09/06 01:19:39;;;;;;;4.13;3.30;;;17.40;99.90;;;;;;5067066;28;20052;-81
2023/09/06 01:22:20;;;;;;;3.90;3.50;;;17.40;99.90;;;;;;5070331;28;20406;-81
2023/09/06 01:24:47;;;;;;;3.67;3.38;;;17.40;99.90;;;;;;5075957;28;20050;-81
2023/09/06 01:27:13;;;;;;;4.65;3.72;;;17.30;99.90;;;;;;5070393;28;20044;-80
2023/09/06 01:29:38;;;;;;;4.78;3.50;;;17.30;99.90;;;;;;5067907;28;20067;-80
2023/09/06 01:32:05;;;;;;;3.70;3.40;;;17.30;99.90;;;;;;5068612;28;20487;-81
2023/09/06 01:34:31;;;;;;;4.07;3.28;;;17.30;99.90;;;;;;5073781;28;20048;-80
2023/09/06 01:36:57;;;;;;;5.07;3.80;;;17.20;99.90;;;;;;5087489;28;20070;-80
2023/09/06 01:39:22;;;;;;;4.53;3.40;;;17.20;99.90;;;;;;5068011;28;20127;-80
2023/09/06 01:41:48;;;;;;;3.63;3.35;;;17.20;99.90;;;;;;5077369;28;20044;-81
2023/09/06 01:44:14;;;;;;;4.40;3.45;;;17.20;99.90;;;;;;5066334;28;20040;-80
2023/09/06 01:46:40;;;;;;;4.75;3.13;;;17.20;99.90;;;;;;5068247;28;20434;-80
2023/09/06 01:49:06;;;;;;;4.15;3.42;;;17.10;99.90;;;;;;5065479;28;20513;-80
2023/09/06 01:51:32;;;;;;;5.55;3.55;;;17.10;99.90;;;;;;5068193;28;20036;-81
2023/09/06 01:53:57;;;;;;;3.92;3.50;;;17.10;99.90;;;;;;5070271;28;20905;-81
2023/09/06 01:56:23;;;;;;;6.00;3.83;;;17.00;99.90;;;;;;5075876;28;20037;-80
2023/09/06 01:58:48;;;;;;;5.13;3.83;;;17.00;99.90;;;;;;5068237;28;20048;-80
2023/09/06 02:01:14;;;;;;;5.65;3.88;;;17.00;99.90;;;;;;5075749;28;20040;-80
2023/09/06 02:03:39;;;;;;;4.82;4.03;;;17.00;99.90;;;;;;5067777;28;20056;-80
2023/09/06 02:06:05;;;;;;;5.38;3.75;;;17.00;99.90;;;;;;5068174;28;20102;-80
2023/09/06 02:08:32;;;;;;;4.97;3.75;;;17.00;99.90;;;;;;5066277;28;20056;-80
2023/09/06 02:10:57;;;;;;;4.25;3.85;;;16.90;99.90;;;;;;5070097;28;20044;-80
2023/09/06 02:13:23;;;;;;;3.65;3.35;;;16.90;99.90;;;;;;5067529;28;20109;-80
2023/09/06 02:15:48;;;;;;;4.15;3.83;;;16.90;99.90;;;;;;5066449;28;20048;-80
2023/09/06 02:18:17;;;;;;;4.65;4.25;;;16.90;99.90;;;;;;5067654;28;20051;-80
2023/09/06 02:20:44;;;;;;;5.50;3.85;;;16.80;99.90;;;;;;5069969;28;20048;-80
2023/09/06 02:23:10;;;;;;;4.70;3.65;;;16.80;99.90;;;;;;5074510;28;20104;-80
2023/09/06 02:25:36;;;;;;;4.10;3.67;;;16.80;99.90;;;;;;5080946;28;20044;-80
2023/09/06 02:28:06;;;;;;;3.95;3.58;;;16.80;99.90;;;;;;5066808;28;20754;-80
2023/09/06 02:30:38;;;;;;;4.22;3.83;;;16.80;99.90;;;;;;5068385;28;20143;-80
2023/09/06 02:33:04;;;;;;;4.57;4.15;;;16.80;99.90;;;;;;5072638;28;20070;-81
2023/09/06 02:35:30;;;;;;;3.88;3.58;;;16.70;99.90;;;;;;5068090;28;20045;-80
2023/09/06 02:37:56;;;;;;;4.88;4.47;;;16.70;99.90;;;;;;5082608;28;20494;-81
2023/09/06 02:40:22;;;;;;;4.93;3.95;;;16.70;99.90;;;;;;5067639;28;20051;-81
2023/09/06 02:42:51;;;;;;;4.45;4.03;;;16.60;99.90;;;;;;5069412;28;20048;-80
2023/09/06 02:45:17;;;;;;;5.00;3.63;;;16.70;99.90;;;;;;5075174;28;20398;-81
2023/09/06 02:47:50;;;;;;;5.03;4.32;;;16.60;99.90;;;;;;5078424;28;20070;-80
2023/09/06 02:50:22;;;;;;;4.75;4.30;;;16.60;99.90;;;;;;5090534;28;20052;-80
2023/09/06 02:52:50;;;;;;;5.03;3.88;;;16.60;99.90;;;;;;5071836;28;20064;-80
2023/09/06 02:55:17;;;;;;;5.57;4.43;;;16.60;99.90;;;;;;5077693;28;20044;-80
2023/09/06 02:57:43;;;;;;;5.20;4.10;;;16.60;99.90;;;;;;5086438;28;20036;-80
2023/09/06 03:00:25;;;;;;;4.43;4.00;;;16.50;99.90;;;;;;5081030;28;20036;-80
2023/09/06 03:02:54;;;;;;;4.80;4.22;;;16.50;99.90;;;;;;5068820;28;20048;-80
2023/09/06 03:05:20;;;;;;;4.07;3.72;;;16.50;99.90;;;;;;5082179;28;20069;-80
2023/09/06 03:07:49;;;;;;;4.90;4.20;;;16.50;99.90;;;;;;5070779;28;20044;-80
2023/09/06 03:10:19;;;;;;;4.68;4.07;;;16.50;99.90;;;;;;5069881;28;20048;-81
2023/09/06 03:12:54;;;;;;;5.18;4.20;;;16.50;99.90;;;;;;5053942;28;20052;-80
2023/09/06 03:15:22;;;;;;;5.50;4.80;;;16.50;99.90;;;;;;5082338;28;20077;-80
2023/09/06 03:17:53;;;;;;;5.20;4.50;;;16.50;99.90;;;;;;5091365;28;20062;-80
2023/09/06 03:20:19;;;;;;;5.53;4.50;;;16.50;99.90;;;;;;5072456;28;20171;-80
2023/09/06 03:22:51;;;;;;;5.20;4.70;;;16.50;99.90;;;;;;5069762;28;20044;-81
2023/09/06 03:25:17;;;;;;;6.40;4.70;;;16.50;99.90;;;;;;5082980;28;20043;-80
2023/09/06 03:27:43;;;;;;;4.82;4.20;;;16.50;99.90;;;;;;5089196;28;20072;-81
2023/09/06 03:30:10;;;;;;;8.95;5.05;;;16.50;99.90;;;;;;5088747;28;20098;-81
2023/09/06 03:32:35;;;;;;;5.40;4.90;;;16.50;99.90;;;;;;5072152;28;20044;-81
2023/09/06 03:35:04;;;;;;;7.13;4.97;;;16.50;99.90;;;;;;5066438;28;20324;-80
2023/09/06 03:37:30;;;;;;;5.47;4.68;;;16.50;99.90;;;;;;5071239;28;20083;-80
2023/09/06 03:39:56;;;;;;;6.00;5.03;;;16.50;99.90;;;;;;5078054;28;20050;-80
2023/09/06 03:42:23;;;;;;;6.38;4.45;;;16.40;99.90;;;;;;5087168;28;20070;-80
2023/09/06 03:44:49;;;;;;;5.32;4.60;;;16.40;99.90;;;;;;5075386;28;20045;-80
2023/09/06 03:47:16;;;;;;;5.82;4.75;;;16.40;99.90;;;;;;5086188;28;20055;-80
2023/09/06 03:49:43;;;;;;;5.45;4.40;;;16.40;99.90;;;;;;5090166;28;20521;-80
2023/09/06 03:52:12;;;;;;;5.25;4.47;;;16.40;99.90;;;;;;5071747;28;20037;-80
2023/09/06 03:54:38;;;;;;;4.45;4.05;;;16.40;99.90;;;;;;5074876;28;20879;-80
2023/09/06 03:57:05;;;;;;;6.15;4.90;;;16.30;99.90;;;;;;5075070;28;20126;-80
2023/09/06 03:59:35;;;;;;;5.45;4.90;;;16.30;99.90;;;;;;5090221;28;20036;-80
2023/09/06 04:02:02;;;;;;;5.72;4.70;;;16.30;99.90;;;;;;5084254;28;20047;-80
2023/09/06 04:04:29;;;;;;;4.95;4.55;;;16.30;99.90;;;;;;5086260;28;20040;-81
2023/09/06 04:06:55;;;;;;;4.75;4.25;;;16.20;99.90;;;;;;5074707;28;20098;-80
2023/09/06 04:09:27;;;;;;;4.80;4.40;;;16.20;99.90;;;;;;5069169;28;20048;-81
2023/09/06 04:11:53;;;;;;;8.07;5.28;;;16.20;99.90;;;;;;5072339;28;20048;-81
2023/09/06 04:14:22;;;;;;;5.57;4.45;;;16.20;99.90;;;;;;5074344;28;20407;-79
2023/09/06 04:16:48;;;;;;;5.05;4.57;;;16.10;99.90;;;;;;5080773;28;20079;-79
2023/09/06 04:19:13;;;;;;;5.60;5.00;;;16.10;99.90;;;;;;5083853;28;20040;-79
2023/09/06 04:21:40;;;;;;;5.55;4.95;;;16.10;99.90;;;;;;5083497;28;20032;-79
2023/09/06 04:24:08;;;;;;;6.35;5.72;;;16.00;99.90;;;;;;5078197;28;20048;-79
2023/09/06 04:26:34;;;;;;;6.05;5.45;;;16.00;99.90;;;;;;5069227;28;20133;-79
2023/09/06 04:29:02;;;;;;;5.45;4.95;;;16.00;99.90;;;;;;5081357;28;20040;-79
2023/09/06 04:31:28;;;;;;;5.70;5.10;;;16.00;99.90;;;;;;5078238;28;20074;-79
2023/09/06 04:33:54;;;;;;;6.88;5.10;;;16.00;99.90;;;;;;5074988;28;20059;-79
2023/09/06 04:36:19;;;;;;;5.85;5.25;;;15.90;99.90;;;;;;5070063;28;20044;-79
2023/09/06 04:38:46;;;;;;;6.28;5.10;;;16.00;99.90;;;;;;5076258;28;20071;-80
2023/09/06 04:41:12;;;;;;;5.85;5.25;;;15.90;99.90;;;;;;5069707;28;20075;-80
2023/09/06 04:43:38;;;;;;;7.65;5.78;;;15.90;99.90;;;;;;5051492;28;20052;-79
2023/09/06 04:46:04;;;;;;;6.43;5.82;;;15.80;99.90;;;;;;5068304;28;20071;-80
2023/09/06 04:48:29;;;;;;;7.00;5.82;;;15.80;99.90;;;;;;5081407;28;20059;-80
2023/09/06 04:50:56;;;;;;;7.93;5.70;;;15.80;99.90;;;;;;5067684;28;20048;-80
2023/09/06 04:53:22;;;;;;;5.80;5.30;;;15.80;99.90;;;;;;5068265;28;20051;-80
2023/09/06 04:55:49;;;;;;;5.90;5.40;;;15.80;99.90;;;;;;5069185;28;20048;-80
2023/09/06 04:58:14;;;;;;;8.88;5.78;;;15.80;99.90;;;;;;5088868;28;20090;-80
2023/09/06 05:00:43;;;;;;;6.90;5.78;;;15.80;99.90;;;;;;5068690;28;21390;-80
2023/09/06 05:03:12;;;;;;;5.63;5.07;;;15.80;99.90;;;;;;5085216;28;20063;-80
2023/09/06 05:05:39;;;;;;;6.88;5.90;;;15.80;99.90;;;;;;5085110;28;20067;-79
2023/09/06 05:08:06;;;;;;;5.88;5.38;;;15.70;99.90;;;;;;5083074;28;22273;-80
2023/09/06 05:10:31;;;;;;;6.97;5.45;;;15.70;99.90;;;;;;5059243;28;20048;-81
2023/09/06 05:12:57;;;;;;;5.85;5.35;;;15.70;99.90;;;;;;5076361;28;20040;-79
2023/09/06 05:15:23;;;;;;;8.30;6.03;;;15.80;99.90;;;;;;5068926;28;20039;-81
2023/09/06 05:17:48;;;;;;;6.43;5.43;;;15.70;99.90;;;;;;5067303;28;20082;-80
2023/09/06 05:20:27;;;;;;;6.22;5.45;;;15.70;99.90;;;;;;5075842;28;20040;-79
2023/09/06 05:22:56;;;;;;;6.10;5.18;;;15.70;99.90;;;;;;5076317;28;20048;-80
2023/09/06 05:25:22;;;;;;;5.95;5.45;;;15.70;99.90;;;;;;5077675;28;20036;-80
2023/09/06 05:27:48;;;;;;;5.82;5.32;;;15.70;99.90;;;;;;5097558;28;20044;-80
2023/09/06 05:30:14;;;;;;;9.93;6.13;;;15.70;99.90;;;;;;5082949;28;20052;-80
2023/09/06 05:32:40;;;;;;;6.60;5.53;;;15.80;99.90;;;;;;5089206;28;20042;-80
2023/09/06 05:35:06;;;;;;;6.85;5.68;;;15.80;99.90;;;;;;5084492;28;20055;-80
2023/09/06 05:37:31;;;;;;;7.60;6.47;;;15.80;99.90;;;;;;5069861;28;20101;-80
2023/09/06 05:39:57;;;;;;;5.72;5.18;;;15.90;99.90;;;;;;5068416;28;20819;-81
2023/09/06 05:42:23;;;;;;;6.15;5.63;;;15.90;99.90;;;;;;5050905;28;20080;-81
2023/09/06 05:44:49;;;;;;;6.70;6.00;;;15.90;99.90;;;;;;5069591;28;20039;-81
2023/09/06 05:47:14;;;;;;;8.60;6.00;;;16.00;99.90;;;;;;5073727;28;20039;-80
2023/09/06 05:49:40;;;;;;;7.10;6.40;;;16.00;99.90;;;;;;5083462;28;20048;-80
2023/09/06 05:52:06;;;;;;;6.90;5.88;;;16.10;99.90;;;;;;5068553;28;20044;-81
2023/09/06 05:54:32;;;;;;;6.80;5.70;;;16.10;99.90;;;;;;5067101;28;20383;-80
2023/09/06 05:56:57;;;;;;;8.43;6.07;;;16.20;99.90;;;;;;5066076;28;20048;-80
2023/09/06 05:59:23;;;;;;;6.72;6.03;;;16.30;99.90;;;;;;5068526;28;20054;-80
2023/09/06 06:01:49;;;;;;;7.63;6.30;;;16.30;99.90;;;;;;5083026;28;20054;-80
2023/09/06 06:04:15;;;;;;;6.68;6.07;;;16.40;99.90;;;;;;5087858;28;20044;-81
2023/09/06 06:06:41;;;;;;;9.88;6.30;;;16.50;99.90;;;;;;5087020;28;20051;-79
2023/09/06 06:09:11;;;;;;;7.97;6.70;;;16.60;99.90;;;;;;5076143;28;20057;-79
2023/09/06 06:11:38;;;;;;;6.25;5.75;;;16.70;99.90;;;;;;5066638;28;20514;-79
2023/09/06 06:14:04;;;;;;;6.78;6.07;;;16.90;99.90;;;;;;5049797;28;20047;-79
2023/09/06 06:16:30;;;;;;;6.82;5.80;;;17.00;99.90;;;;;;5067252;28;20048;-79
2023/09/06 06:18:56;;;;;;;6.50;5.45;;;17.10;99.90;;;;;;5067582;28;20490;-79
2023/09/06 06:21:27;;;;;;;6.60;5.47;;;17.30;99.90;;;;;;5067760;28;20050;-79
2023/09/06 06:23:54;;;;;;;7.63;5.80;;;17.40;99.90;;;;;;5077736;28;20058;-80
2023/09/06 06:26:20;;;;;;;6.10;5.57;;;17.60;99.90;;;;;;5072302;28;20052;-80
2023/09/06 06:28:46;;;;;;;7.78;6.18;;;17.70;99.90;;;;;;5068044;28;20044;-79
2023/09/06 06:31:12;;;;;;;6.47;5.97;;;17.80;99.90;;;;;;5065911;28;20040;-79
2023/09/06 06:33:38;;;;;;;9.85;6.28;;;17.90;99.90;;;;;;5067172;28;20048;-80
2023/09/06 06:36:07;;;;;;;8.35;6.05;;;18.00;99.90;;;;;;5067489;28;20044;-80
2023/09/06 06:38:32;;;;;;;6.10;5.38;;;18.10;99.90;;;;;;5067469;28;20044;-78
2023/09/06 06:40:58;;;;;;;6.25;5.75;;;18.20;99.90;;;;;;5066291;28;20483;-80
2023/09/06 06:43:23;;;;;;;6.40;5.80;;;18.30;99.90;;;;;;5067085;28;20430;-81
2023/09/06 06:45:52;;;;;;;5.90;5.30;;;18.50;99.90;;;;;;5084298;28;20051;-81
2023/09/06 06:48:18;;;;;;;8.50;6.05;;;18.60;99.90;;;;;;5084971;28;20119;-82
2023/09/06 06:50:44;;;;;;;5.70;5.20;;;18.70;99.90;;;;;;5068953;28;20505;-82
2023/09/06 06:53:10;;;;;;;6.05;5.30;;;18.80;99.90;;;;;;5068121;28;20089;-81
2023/09/06 06:55:37;;;;;;;6.15;5.03;;;18.90;99.90;;;;;;5066062;28;20118;-82
2023/09/06 06:58:03;;;;;;;6.60;5.03;;;19.10;99.90;;;;;;5067352;28;20487;-82
2023/09/06 07:00:31;;;;;;;5.93;5.15;;;19.10;99.90;;;;;;5081369;28;20086;-82
2023/09/06 07:02:57;;;;;;;6.30;4.97;;;19.30;99.90;;;;;;5071622;28;20131;-81
2023/09/06 07:05:23;;;;;;;4.78;4.38;;;19.40;99.90;;;;;;5072355;28;20080;-82
2023/09/06 07:07:49;;;;;;;5.95;4.38;;;19.50;99.90;;;;;;5066279;28;20525;-82
2023/09/06 07:10:15;;;;;;;7.38;4.60;;;19.60;99.90;;;;;;5068023;28;20049;-81
2023/09/06 07:12:41;;;;;;;4.80;4.13;;;19.80;99.90;;;;;;5064566;28;20127;-80
2023/09/06 07:15:07;;;;;;;4.65;4.13;;;20.00;99.90;;;;;;5065770;28;20071;-81
2023/09/06 07:17:33;;;;;;;4.95;4.40;;;20.10;99.90;;;;;;5057359;28;20498;-81
2023/09/06 07:19:58;;;;;;;7.75;4.25;;;20.20;99.90;;;;;;5085530;28;20044;-81
2023/09/06 07:22:25;;;;;;;6.57;4.57;;;20.30;99.90;;;;;;5085190;28;20407;-81
2023/09/06 07:24:50;;;;;;;5.32;3.85;;;20.40;99.90;;;;;;5084617;28;20086;-82
2023/09/06 07:27:16;;;;;;;4.25;3.58;;;20.60;99.90;;;;;;5086078;28;20870;-82
2023/09/06 07:29:42;;;;;;;7.63;3.63;;;20.60;99.90;;;;;;5071387;28;20443;-82
2023/09/06 07:32:07;;;;;;;3.55;3.25;;;20.80;99.90;;;;;;5068929;28;20072;-81
2023/09/06 07:34:33;;;;;;;5.68;3.75;;;20.90;99.90;;;;;;5071695;28;20053;-82
2023/09/06 07:36:58;;;;;;;4.63;3.50;;;21.00;99.90;;;;;;5069481;28;20497;-84
2023/09/06 07:39:24;;;;;;;4.72;3.60;;;21.10;99.90;;;;;;5070925;28;20115;-83
2023/09/06 07:41:53;;;;;;;3.58;3.28;;;21.30;99.90;;;;;;5069999;28;20490;-83
2023/09/06 07:44:19;;;;;;;3.70;3.40;;;21.50;99.90;;;;;;5079287;28;20048;-82
2023/09/06 07:46:48;;;;;;;3.85;3.38;;;21.50;99.90;;;;;;5091248;28;20521;-82
2023/09/06 07:49:18;;;;;;;6.03;3.10;;;21.70;99.90;;;;;;5090263;28;20060;-85
2023/09/06 07:51:44;;;;;;;4.18;3.10;;;21.90;99.90;;;;;;5089449;28;20071;-84
2023/09/06 07:54:10;;;;;;;4.55;2.63;;;22.00;99.90;;;;;;5090432;28;20048;-85
2023/09/06 07:56:37;;;;;;;4.68;3.10;;;22.20;99.90;;;;;;5089600;28;20044;-84
2023/09/06 07:59:03;;;;;;;4.72;2.83;;;22.20;99.90;;;;;;5076149;28;20048;-83
2023/09/06 08:01:28;;;;;;;3.53;2.55;;;22.40;99.90;;;;;;5070574;28;20046;-83
2023/09/06 08:03:55;;;;;;;3.42;3.10;;;22.50;99.90;;;;;;5069823;28;20053;-85
2023/09/06 08:06:21;;;;;;;5.15;2.70;;;22.60;99.90;;;;;;5070615;28;20452;-84
2023/09/06 08:08:47;;;;;;;3.80;2.65;;;22.70;99.90;;;;;;5070132;28;20056;-82
2023/09/06 08:11:16;;;;;;;3.47;2.40;;;22.90;99.90;;;;;;5084173;28;20433;-80
2023/09/06 08:13:42;;;;;;;3.85;2.42;;;23.00;99.90;;;;;;5069255;28;20054;-80
2023/09/06 08:16:07;;;;;;;4.03;2.60;;;23.10;99.90;;;;;;5069856;28;20040;-80
2023/09/06 08:18:33;;;;;;;2.88;2.60;;;23.30;99.90;;;;;;5084999;28;20052;-80
2023/09/06 08:21:00;;;;;;;4.00;2.63;;;23.30;99.90;;;;;;5067994;28;20044;-80
2023/09/06 08:23:25;;;;;;;4.60;2.72;;;23.50;99.90;;;;;;5068556;28;20049;-80
2023/09/06 08:25:51;;;;;;;5.10;2.50;;;23.60;99.90;;;;;;5069995;28;20415;-80
2023/09/06 08:28:18;;;;;;;3.05;2.50;;;23.70;99.90;;;;;;5077114;28;20484;-80
2023/09/06 08:30:46;;;;;;;3.92;2.33;;;23.70;99.90;;;;;;5069569;28;20518;-80
2023/09/06 08:33:12;;;;;;;4.13;2.40;;;23.90;99.90;;;;;;5069180;28;20040;-80
2023/09/06 08:35:37;;;;;;;4.82;2.25;;;24.00;99.90;;;;;;5068157;28;20052;-80
2023/09/06 08:38:03;;;;;;;4.22;2.60;;;24.00;99.90;;;;;;5068056;28;20048;-80
2023/09/06 08:40:29;;;;;;;3.60;2.40;;;24.10;99.90;;;;;;5068432;28;20052;-81
2023/09/06 08:42:55;;;;;;;2.83;2.30;;;24.30;99.90;;;;;;5072899;28;20075;-80
2023/09/06 08:45:21;;;;;;;3.67;2.20;;;24.30;99.90;;;;;;5071225;28;20036;-79
2023/09/06 08:47:48;;;;;;;3.17;2.40;;;24.40;99.90;;;;;;5051343;28;20135;-79
2023/09/06 08:50:14;;;;;;;6.28;2.40;;;24.40;99.90;;;;;;5068144;28;20522;-79
2023/09/06 08:52:41;;;;;;;5.32;2.38;;;24.50;99.90;;;;;;5067870;28;20045;-79
2023/09/06 08:55:10;;;;;;;2.35;2.05;;;24.70;99.90;;;;;;5069894;28;20052;-79
2023/09/06 08:57:40;;;;;;;4.18;2.40;;;24.70;99.90;;;;;;5069217;28;20058;-80
2023/09/06 09:00:09;;;;;;;3.30;2.50;;;24.80;99.90;;;;;;5069362;28;20043;-79
2023/09/06 09:02:36;;;;;;;3.25;2.10;;;24.90;99.90;;;;;;5069529;28;20051;-79
2023/09/06 09:05:06;;;;;;;4.07;3.00;;;24.90;99.90;;;;;;5066887;28;20610;-80
2023/09/06 09:07:31;;;;;;;3.67;2.70;;;25.10;99.90;;;;;;5068347;28;20592;-80
2023/09/06 09:10:04;;;;;;;5.35;2.40;;;25.10;99.90;;;;;;5068700;28;20048;-80
2023/09/06 09:12:30;;;;;;;3.45;2.67;;;25.20;99.90;;;;;;5068602;28;20074;-80
2023/09/06 09:14:58;;;;;;;5.18;2.53;;;25.30;99.90;;;;;;5067302;28;20498;-80
2023/09/06 09:17:25;;;;;;;5.07;2.55;;;25.30;99.90;;;;;;5079508;28;20147;-80
2023/09/06 09:19:56;;;;;;;4.80;2.60;;;25.40;99.90;;;;;;5087490;28;20043;-80
2023/09/06 09:22:35;;;;;;;5.43;2.72;;;25.50;99.90;;;;;;5088787;28;20063;-80
2023/09/06 09:25:14;;;;;;;2.58;2.38;;;25.50;99.90;;;;;;5088878;28;20054;-80
2023/09/06 09:27:41;;;;;;;4.30;2.75;;;25.60;99.90;;;;;;5088901;28;20478;-80
2023/09/06 09:30:08;;;;;;;4.90;2.65;;;25.70;99.90;;;;;;5087921;28;20131;-80
2023/09/06 09:32:34;;;;;;;4.78;2.58;;;25.80;99.90;;;;;;5073390;28;20040;-80
2023/09/06 09:34:59;;;;;;;2.90;2.55;;;25.80;99.70;;;;;;5068087;28;20051;-80
2023/09/06 09:37:29;;;;;;;5.20;2.85;;;25.90;99.20;;;;;;5067646;28;20044;-79
2023/09/06 09:39:58;;;;;;;4.43;2.63;;;26.10;98.80;;;;;;5076561;28;20060;-81
2023/09/06 09:42:26;;;;;;;4.88;2.55;;;26.20;98.00;;;;;;5068834;28;20036;-80
2023/09/06 09:45:02;;;;;;;3.17;2.15;;;26.20;97.70;;;;;;5056730;28;20052;-80
2023/09/06 09:47:29;;;;;;;2.65;2.15;;;26.40;96.30;;;;;;5083420;28;20044;-80
2023/09/06 09:49:55;;;;;;;3.50;2.30;;;26.40;97.00;;;;;;5086964;28;20467;-80
2023/09/06 09:52:24;;;;;;;2.60;2.40;;;26.50;96.20;;;;;;5078271;28;20058;-81
2023/09/06 09:54:51;;;;;;;3.58;2.40;;;26.60;96.40;;;;;;5067944;28;20056;-81
2023/09/06 09:57:21;;;;;;;3.08;2.63;;;26.60;95.10;;;;;;5068123;28;20052;-80
2023/09/06 09:59:50;;;;;;;4.18;2.33;;;26.70;94.50;;;;;;5066832;28;20391;-81
2023/09/06 10:02:16;;;;;;;4.40;2.60;;;26.70;94.50;;;;;;5068402;28;20076;-81
2023/09/06 10:04:44;;;;;;;3.47;2.55;;;26.70;94.20;;;;;;5066875;28;20051;-82
2023/09/06 10:07:14;;;;;;;3.20;2.60;;;26.80;93.40;;;;;;5074228;28;20079;-82
2023/09/06 10:09:41;;;;;;;3.03;2.28;;;26.80;93.10;;;;;;5068603;28;20075;-80
2023/09/06 10:12:14;;;;;;;3.35;2.50;;;26.70;93.40;;;;;;5068073;28;20404;-81
2023/09/06 10:14:41;;;;;;;4.43;2.30;;;26.80;93.30;;;;;;5067957;28;20041;-81
2023/09/06 10:17:08;;;;;;;3.85;2.60;;;26.90;92.90;;;;;;5067925;28;20056;-81
2023/09/06 10:19:37;;;;;;;3.85;2.40;;;26.90;92.80;;;;;;5067289;28;20130;-81
2023/09/06 10:22:07;;;;;;;4.78;2.33;;;27.10;93.10;;;;;;5067727;28;20110;-81
2023/09/06 10:24:35;;;;;;;4.40;2.15;;;27.10;92.70;;;;;;5067495;28;20494;-81
2023/09/06 10:27:02;;;;;;;4.90;2.42;;;27.20;91.90;;;;;;5086605;28;20048;-81
2023/09/06 10:29:32;;;;;;;5.22;2.10;;;27.30;91.90;;;;;;5086910;28;20071;-81
2023/09/06 10:32:03;;;;;;;2.47;2.25;;;27.40;91.90;;;;;;5079488;28;20052;-83
2023/09/06 10:34:36;;;;;;;2.97;2.10;;;27.40;90.40;;;;;;5087900;28;20039;-81
2023/09/06 10:37:03;;;;;;;4.00;2.20;;;27.40;88.70;;;;;;5087092;28;20059;-82
2023/09/06 10:39:30;;;;;;;3.67;2.53;;;27.50;89.30;;;;;;5087704;28;20036;-82
2023/09/06 10:42:11;;;;;;;3.78;2.30;;;27.50;88.80;;;;;;5069529;28;20046;-81
2023/09/06 10:44:55;;;;;;;5.00;2.50;;;27.60;85.40;;;;;;5087450;28;20109;-81
2023/09/06 10:47:33;;;;;;;2.67;2.13;;;27.70;87.40;;;;;;5071234;28;20040;-82
2023/09/06 10:50:14;;;;;;;5.15;2.05;;;27.80;86.50;;;;;;5067041;28;20060;-82
2023/09/06 10:52:43;;;;;;;2.40;1.92;;;27.90;85.60;;;;;;5081183;28;20056;-81
2023/09/06 10:55:21;;;;;;;4.22;2.13;;;27.90;85.00;;;;;;5084807;28;20520;-81
2023/09/06 10:57:54;;;;;;;4.03;2.38;;;28.00;83.70;;;;;;5085449;28;20052;-81
2023/09/06 11:00:25;;;;;;;2.53;2.05;;;28.10;84.60;;;;;;5066304;28;20041;-81
2023/09/06 11:03:13;;;;;;;2.47;2.03;;;28.20;84.80;;;;;;5071610;28;20036;-80
2023/09/06 11:05:44;;;;;;;4.07;2.63;;;28.20;83.20;;;;;;5071005;28;20212;-81
2023/09/06 11:08:29;;;;;;;2.40;2.17;;;28.20;80.60;;;;;;5082189;28;20065;-81
2023/09/06 11:11:07;;;;;;;3.08;1.85;;;28.20;80.70;;;;;;5090566;28;20083;-81
2023/09/06 11:13:33;;;;;;;5.57;2.10;;;28.30;80.80;;;;;;5075316;28;20397;-83
2023/09/06 11:16:00;;;;;;;3.58;2.13;;;28.30;80.90;;;;;;5074332;28;20114;-82
2023/09/06 11:18:28;;;;;;;2.33;2.05;;;28.50;80.10;;;;;;5071289;28;20048;-82
2023/09/06 11:20:54;;;;;;;2.13;1.92;;;28.50;78.80;;;;;;5070814;28;20045;-82
2023/09/06 11:23:19;;;;;;;2.53;2.08;;;28.60;77.80;;;;;;5075128;28;20048;-82
2023/09/06 11:25:45;;;;;;;3.05;2.10;;;28.60;77.70;;;;;;5079475;28;20414;-81
2023/09/06 11:28:21;;;;;;;4.60;1.73;;;28.60;77.00;;;;;;5070200;28;20127;-81
2023/09/06 11:30:47;;;;;;;2.78;2.03;;;28.70;77.60;;;;;;5088607;28;20452;-81
2023/09/06 11:33:17;;;;;;;2.38;1.60;;;28.70;77.00;;;;;;5090860;28;20040;-81
2023/09/06 11:35:52;;;;;;;1.90;1.80;;;28.90;76.10;;;;;;5077530;28;20489;-81
2023/09/06 11:38:24;;;;;;;1.52;1.27;;;28.90;74.00;;;;;;5077625;28;20511;-80
2023/09/06 11:40:51;;;;;;;2.72;2.25;;;29.00;73.50;;;;;;5071160;28;20044;-81
2023/09/06 11:43:22;;;;;;;2.10;1.88;;;29.00;73.30;;;;;;5070455;28;20051;-81
2023/09/06 11:45:51;;;;;;;3.17;2.00;;;28.90;72.60;;;;;;5069944;28;20045;-80
2023/09/06 11:48:24;;;;;;;2.15;1.88;;;29.00;71.00;;;;;;5070517;28;20058;-83
2023/09/06 11:50:55;;;;;;;2.63;1.98;;;29.00;70.60;;;;;;5069876;28;20519;-83
2023/09/06 11:53:21;;;;;;;2.17;2.00;;;29.10;70.50;;;;;;5085555;28;20074;-83
2023/09/06 11:55:49;;;;;;;2.38;2.08;;;29.00;71.00;;;;;;5084768;28;20036;-83
2023/09/06 11:58:18;;;;;;;4.20;2.10;;;29.00;70.70;;;;;;5090308;28;20058;-83
2023/09/06 12:00:50;;;;;;;3.63;1.90;;;29.10;72.20;;;;;;5090451;28;20040;-83
2023/09/06 12:03:16;;;;;;;2.05;1.90;;;29.20;72.40;;;;;;5079820;28;20051;-83
2023/09/06 12:05:47;;;;;;;2.58;2.05;;;29.20;72.40;;;;;;5073681;28;20043;-83
2023/09/06 12:08:19;;;;;;;2.53;2.00;;;29.20;71.80;;;;;;5087883;28;20047;-84
2023/09/06 12:10:50;;;;;;;3.65;1.90;;;29.30;72.50;;;;;;5070280;28;20044;-83
2023/09/06 12:13:17;;;;;;;2.67;1.95;;;29.40;72.70;;;;;;5079172;28;20055;-83
2023/09/06 12:15:44;;;;;;;3.25;1.80;;;29.50;71.90;;;;;;5068311;28;20695;-83
2023/09/06 12:18:11;;;;;;;2.72;2.03;;;29.40;71.00;;;;;;5088972;28;20134;-82
2023/09/06 12:20:37;;;;;;;3.28;2.00;;;29.40;71.70;;;;;;5088733;28;20127;-83
2023/09/06 12:23:04;;;;;;;3.95;1.90;;;29.40;71.70;;;;;;5104283;28;20485;-82
2023/09/06 12:25:30;;;;;;;2.60;1.85;;;29.40;71.10;;;;;;5071682;28;20048;-83
2023/09/06 12:27:56;;;;;;;2.33;2.05;;;29.40;71.20;;;;;;5069523;28;20482;-82
2023/09/06 12:30:22;;;;;;;2.15;1.92;;;29.50;72.20;;;;;;5078069;28;20056;-82
2023/09/06 12:32:48;;;;;;;2.58;2.15;;;29.50;71.70;;;;;;5089036;28;20097;-82
2023/09/06 12:35:14;;;;;;;2.00;1.90;;;29.50;70.80;;;;;;5081995;28;20494;-82
2023/09/06 12:37:40;;;;;;;3.08;2.53;;;29.50;70.60;;;;;;5073196;28;20125;-82
2023/09/06 12:40:13;;;;;;;1.95;1.85;;;29.50;70.80;;;;;;5076852;28;20068;-81
2023/09/06 12:42:44;;;;;;;2.55;2.00;;;29.60;70.70;;;;;;5087646;28;20044;-82
2023/09/06 12:45:26;;;;;;;2.25;1.80;;;29.70;71.70;;;;;;5088865;28;20058;-81
2023/09/06 12:47:54;;;;;;;2.20;2.00;;;29.70;70.40;;;;;;5076024;28;20530;-82
2023/09/06 12:50:20;;;;;;;2.25;1.98;;;29.80;70.70;;;;;;5086881;28;20140;-81